createdAt,value
2018-07-20T00:00:07.306Z,6.78
2018-07-20T00:01:10.939Z,6.05
2018-07-20T00:02:14.504Z,5.92
2018-07-20T00:03:18.156Z,7.40
2018-07-20T00:04:21.756Z,6.58
2018-07-20T00:05:25.365Z,6.92
2018-07-20T00:06:31.741Z,5.65
2018-07-20T00:07:35.398Z,6.20
2018-07-20T00:08:38.995Z,6.60
2018-07-20T00:09:42.276Z,6.50
2018-07-20T00:10:45.902Z,6.12
2018-07-20T00:11:49.542Z,7.00
2018-07-20T00:12:53.559Z,6.53
2018-07-20T00:13:57.147Z,7.15
2018-07-20T00:15:00.827Z,6.40
2018-07-20T00:16:04.451Z,6.53
2018-07-20T00:17:08.047Z,6.42
2018-07-20T00:18:11.712Z,5.97
2018-07-20T00:19:15.367Z,6.62
2018-07-20T00:20:18.995Z,7.05
2018-07-20T00:21:22.627Z,6.67
2018-07-20T00:22:26.277Z,6.30
2018-07-20T00:23:30.016Z,6.40
2018-07-20T00:24:33.615Z,6.60
2018-07-20T00:25:37.204Z,6.45
2018-07-20T00:26:40.840Z,6.53
2018-07-20T00:27:44.590Z,6.22
2018-07-20T00:28:48.225Z,6.30
2018-07-20T00:29:51.833Z,7.72
2018-07-20T00:30:55.495Z,6.92
2018-07-20T00:31:59.136Z,7.03
2018-07-20T00:33:02.808Z,7.03
2018-07-20T00:34:06.502Z,7.67
2018-07-20T00:35:09.804Z,6.70
2018-07-20T00:36:13.386Z,6.90
2018-07-20T00:37:17.001Z,6.70
2018-07-20T00:38:20.272Z,7.03
2018-07-20T00:39:23.597Z,6.58
2018-07-20T00:40:27.154Z,6.92
2018-07-20T00:41:30.775Z,6.85
2018-07-20T00:42:34.425Z,7.15
2018-07-20T00:43:37.721Z,7.92
2018-07-20T00:44:41.007Z,7.30
2018-07-20T00:45:44.266Z,7.15
2018-07-20T00:46:47.889Z,6.65
2018-07-20T00:47:51.543Z,7.53
2018-07-20T00:48:55.739Z,7.40
2018-07-20T00:49:59.605Z,6.62
2018-07-20T00:51:03.243Z,6.55
2018-07-20T00:52:06.971Z,7.28
2018-07-20T00:53:10.597Z,6.95
2018-07-20T00:54:14.232Z,6.87
2018-07-20T00:55:17.830Z,7.05
2018-07-20T00:56:21.440Z,6.87
2018-07-20T00:57:25.053Z,6.67
2018-07-20T00:58:28.695Z,7.20
2018-07-20T00:59:32.297Z,7.22
2018-07-20T01:00:35.566Z,6.40
2018-07-20T01:01:39.208Z,6.58
2018-07-20T01:02:42.787Z,6.42
2018-07-20T01:03:46.439Z,7.95
2018-07-20T01:04:49.730Z,6.80
2018-07-20T01:05:53.051Z,7.35
2018-07-20T01:06:56.675Z,7.05
2018-07-20T01:08:00.264Z,6.20
2018-07-20T01:09:04.550Z,7.15
2018-07-20T01:10:08.186Z,7.12
2018-07-20T01:11:11.805Z,6.60
2018-07-20T01:12:15.407Z,6.72
2018-07-20T01:13:19.084Z,6.58
2018-07-20T01:14:22.373Z,6.05
2018-07-20T01:15:26.016Z,6.90
2018-07-20T01:16:29.638Z,7.17
2018-07-20T01:17:33.253Z,7.08
2018-07-20T01:18:36.898Z,7.50
2018-07-20T01:19:40.214Z,7.12
2018-07-20T01:20:43.497Z,7.90
2018-07-20T01:21:46.764Z,7.53
2018-07-20T01:22:50.009Z,7.90
2018-07-20T01:23:53.341Z,7.40
2018-07-20T01:24:56.588Z,8.10
2018-07-20T01:25:59.855Z,7.80
2018-07-20T01:27:03.156Z,8.70
2018-07-20T01:28:06.419Z,8.78
2018-07-20T01:29:09.708Z,7.70
2018-07-20T01:30:12.967Z,7.75
2018-07-20T01:31:16.229Z,7.40
2018-07-20T01:32:19.490Z,8.10
2018-07-20T01:33:22.756Z,7.83
2018-07-20T01:34:26.128Z,7.92
2018-07-20T01:35:29.406Z,7.80
2018-07-20T01:36:32.681Z,7.67
2018-07-20T01:37:35.944Z,7.80
2018-07-20T01:38:39.232Z,7.33
2018-07-20T01:39:42.549Z,7.92
2018-07-20T01:40:45.772Z,8.70
2018-07-20T01:41:49.075Z,7.80
2018-07-20T01:42:52.329Z,6.70
2018-07-20T01:43:55.613Z,7.42
2018-07-20T01:44:58.940Z,8.20
2018-07-20T01:46:02.248Z,6.65
2018-07-20T01:47:05.487Z,6.92
2018-07-20T01:48:08.759Z,7.62
2018-07-20T01:49:12.026Z,7.40
2018-07-20T01:50:15.431Z,7.30
2018-07-20T01:51:18.772Z,7.47
2018-07-20T01:52:22.026Z,7.90
2018-07-20T01:53:25.336Z,7.00
2018-07-20T01:54:28.616Z,7.83
2018-07-20T01:55:31.907Z,8.15
2018-07-20T01:56:35.205Z,6.75
2018-07-20T01:57:38.474Z,7.08
2018-07-20T01:58:41.763Z,7.75
2018-07-20T01:59:45.045Z,7.42
2018-07-20T02:00:48.326Z,7.37
2018-07-20T02:01:51.730Z,8.23
2018-07-20T02:02:55.031Z,7.90
2018-07-20T02:03:58.328Z,8.03
2018-07-20T02:05:01.604Z,7.72
2018-07-20T02:06:05.087Z,8.28
2018-07-20T02:07:08.362Z,8.50
2018-07-20T02:08:11.748Z,7.75
2018-07-20T02:09:15.022Z,7.90
2018-07-20T02:10:18.282Z,7.10
2018-07-20T02:11:21.623Z,8.03
2018-07-20T02:12:24.906Z,7.80
2018-07-20T02:13:28.152Z,7.17
2018-07-20T02:14:31.436Z,7.62
2018-07-20T02:15:34.742Z,7.25
2018-07-20T02:16:38.146Z,8.00
2018-07-20T02:17:41.759Z,7.35
2018-07-20T02:18:45.384Z,7.65
2018-07-20T02:19:49.020Z,7.70
2018-07-20T02:20:52.280Z,7.87
2018-07-20T02:21:55.955Z,8.33
2018-07-20T02:22:59.584Z,8.43
2018-07-20T02:24:03.217Z,7.67
2018-07-20T02:25:06.858Z,8.30
2018-07-20T02:26:10.109Z,7.90
2018-07-20T02:27:13.760Z,8.13
2018-07-20T02:28:17.356Z,7.97
2018-07-20T02:29:21.170Z,7.87
2018-07-20T02:30:24.714Z,8.33
2018-07-20T02:31:28.395Z,8.05
2018-07-20T02:32:32.138Z,8.38
2018-07-20T02:33:35.780Z,7.78
2018-07-20T02:34:39.446Z,8.73
2018-07-20T02:35:43.137Z,8.18
2018-07-20T02:36:46.820Z,8.35
2018-07-20T02:37:50.481Z,8.18
2018-07-20T02:38:54.166Z,8.33
2018-07-20T02:39:57.848Z,7.90
2018-07-20T02:41:01.479Z,8.43
2018-07-20T02:42:05.094Z,8.05
2018-07-20T02:43:08.736Z,7.60
2018-07-20T02:44:12.504Z,8.00
2018-07-20T02:45:16.145Z,8.83
2018-07-20T02:46:19.765Z,8.20
2018-07-20T02:47:23.466Z,7.33
2018-07-20T02:48:27.073Z,8.45
2018-07-20T02:49:30.353Z,8.68
2018-07-20T02:50:33.955Z,8.53
2018-07-20T02:51:37.578Z,7.95
2018-07-20T02:52:41.253Z,8.05
2018-07-20T02:53:44.819Z,9.25
2018-07-20T02:54:48.476Z,8.48
2018-07-20T02:55:52.059Z,9.05
2018-07-20T02:56:55.690Z,8.23
2018-07-20T02:57:59.375Z,8.43
2018-07-20T02:59:02.998Z,7.70
2018-07-20T03:00:06.632Z,8.08
2018-07-20T03:01:10.204Z,8.20
2018-07-20T03:02:13.871Z,7.30
2018-07-20T03:03:17.204Z,8.43
2018-07-20T03:04:20.768Z,7.53
2018-07-20T03:05:24.367Z,8.50
2018-07-20T03:06:27.970Z,8.20
2018-07-20T03:07:31.593Z,7.17
2018-07-20T03:08:35.252Z,7.75
2018-07-20T03:09:38.899Z,7.92
2018-07-20T03:10:42.469Z,8.30
2018-07-20T03:11:46.115Z,8.05
2018-07-20T03:12:49.765Z,8.90
2018-07-20T03:13:53.437Z,8.30
2018-07-20T03:14:57.122Z,7.28
2018-07-20T03:16:00.801Z,8.75
2018-07-20T03:17:04.522Z,8.38
2018-07-20T03:18:08.214Z,9.33
2018-07-20T03:19:11.819Z,8.13
2018-07-20T03:20:15.480Z,8.03
2018-07-20T03:21:19.110Z,9.15
2018-07-20T03:22:22.753Z,7.85
2018-07-20T03:23:26.435Z,7.90
2018-07-20T03:24:30.054Z,8.45
2018-07-20T03:25:33.728Z,8.30
2018-07-20T03:26:37.394Z,8.90
2018-07-20T03:27:40.671Z,8.58
2018-07-20T03:28:44.335Z,8.10
2018-07-20T03:29:47.972Z,8.18
2018-07-20T03:30:51.680Z,8.55
2018-07-20T03:31:55.381Z,8.33
2018-07-20T03:32:59.140Z,8.15
2018-07-20T03:34:02.814Z,8.30
2018-07-20T03:35:06.645Z,8.48
2018-07-20T03:36:10.301Z,8.43
2018-07-20T03:37:13.974Z,9.30
2018-07-20T03:38:17.577Z,8.25
2018-07-20T03:39:21.241Z,8.50
2018-07-20T03:40:25.175Z,8.20
2018-07-20T03:41:28.857Z,8.73
2018-07-20T03:42:32.157Z,8.25
2018-07-20T03:43:35.775Z,7.25
2018-07-20T03:44:39.413Z,8.25
2018-07-20T03:45:43.027Z,7.87
2018-07-20T03:46:46.691Z,8.05
2018-07-20T03:47:50.325Z,7.58
2018-07-20T03:48:54.120Z,8.43
2018-07-20T03:49:57.830Z,8.10
2018-07-20T03:51:01.543Z,8.33
2018-07-20T03:52:05.268Z,8.13
2018-07-20T03:53:08.937Z,8.40
2018-07-20T03:54:12.590Z,7.53
2018-07-20T03:55:16.301Z,7.95
2018-07-20T03:56:19.910Z,8.28
2018-07-20T03:57:23.493Z,7.95
2018-07-20T03:58:27.127Z,8.23
2018-07-20T03:59:30.773Z,7.92
2018-07-20T04:00:34.395Z,7.47
2018-07-20T04:01:38.042Z,8.68
2018-07-20T04:02:41.401Z,8.28
2018-07-20T04:03:45.031Z,8.00
2018-07-20T04:04:48.669Z,9.23
2018-07-20T04:05:52.307Z,8.40
2018-07-20T04:06:55.947Z,9.58
2018-07-20T04:07:59.604Z,8.00
2018-07-20T04:09:03.348Z,8.65
2018-07-20T04:10:07.228Z,8.23
2018-07-20T04:11:10.875Z,7.50
2018-07-20T04:12:14.187Z,8.70
2018-07-20T04:13:17.755Z,9.70
2018-07-20T04:14:21.302Z,8.18
2018-07-20T04:15:24.984Z,7.60
2018-07-20T04:16:28.651Z,7.60
2018-07-20T04:17:41.781Z,8.35
2018-07-20T04:18:45.456Z,8.05
2018-07-20T04:19:49.108Z,7.72
2018-07-20T04:20:52.766Z,8.60
2018-07-20T04:21:56.416Z,7.12
2018-07-20T04:23:00.037Z,7.72
2018-07-20T04:24:03.695Z,8.43
2018-07-20T04:25:07.285Z,7.90
2018-07-20T04:26:10.961Z,7.97
2018-07-20T04:27:14.607Z,7.65
2018-07-20T04:28:18.262Z,8.15
2018-07-20T04:29:22.450Z,7.35
2018-07-20T04:30:26.044Z,7.92
2018-07-20T04:31:29.328Z,7.95
2018-07-20T04:32:32.958Z,8.05
2018-07-20T04:33:36.614Z,7.58
2018-07-20T04:34:39.914Z,7.40
2018-07-20T04:35:43.585Z,8.53
2018-07-20T04:36:47.248Z,9.75
2018-07-20T04:37:50.832Z,8.20
2018-07-20T04:38:54.452Z,9.23
2018-07-20T04:39:57.762Z,7.85
2018-07-20T04:41:01.379Z,8.20
2018-07-20T04:42:05.130Z,7.83
2018-07-20T04:43:08.730Z,8.40
2018-07-20T04:44:11.988Z,8.20
2018-07-20T04:45:15.581Z,8.25
2018-07-20T04:46:19.191Z,8.05
2018-07-20T04:47:22.846Z,8.25
2018-07-20T04:48:26.443Z,8.30
2018-07-20T04:49:30.102Z,8.10
2018-07-20T04:50:33.763Z,8.03
2018-07-20T04:51:37.399Z,8.48
2018-07-20T04:52:41.081Z,7.83
2018-07-20T04:53:44.779Z,8.83
2018-07-20T04:54:48.427Z,8.40
2018-07-20T04:55:51.670Z,8.78
2018-07-20T04:56:55.253Z,8.85
2018-07-20T04:57:58.885Z,8.85
2018-07-20T04:59:02.504Z,8.50
2018-07-20T05:00:06.256Z,8.45
2018-07-20T05:01:09.903Z,8.00
2018-07-20T05:02:13.673Z,9.60
2018-07-20T05:03:17.412Z,8.93
2018-07-20T05:04:21.025Z,9.05
2018-07-20T05:05:24.677Z,8.00
2018-07-20T05:06:28.292Z,8.38
2018-07-20T05:07:32.006Z,8.25
2018-07-20T05:08:35.632Z,8.60
2018-07-20T05:09:39.231Z,8.38
2018-07-20T05:10:42.820Z,8.50
2018-07-20T05:11:46.417Z,8.10
2018-07-20T05:12:50.145Z,8.10
2018-07-20T05:13:53.769Z,8.05
2018-07-20T05:14:57.101Z,8.00
2018-07-20T05:16:00.719Z,8.85
2018-07-20T05:17:04.349Z,8.70
2018-07-20T05:18:08.032Z,7.85
2018-07-20T05:19:11.711Z,7.65
2018-07-20T05:20:15.505Z,8.80
2018-07-20T05:21:19.107Z,8.50
2018-07-20T05:22:22.721Z,8.43
2018-07-20T05:23:26.324Z,9.45
2018-07-20T05:24:29.933Z,8.03
2018-07-20T05:25:33.697Z,8.05
2018-07-20T05:26:36.980Z,8.60
2018-07-20T05:27:40.234Z,7.70
2018-07-20T05:28:43.882Z,8.35
2018-07-20T05:29:47.512Z,7.53
2018-07-20T05:30:51.163Z,7.85
2018-07-20T05:31:54.920Z,9.35
2018-07-20T05:32:58.213Z,8.10
2018-07-20T05:34:01.477Z,8.30
2018-07-20T05:35:05.121Z,8.08
2018-07-20T05:36:08.754Z,9.13
2018-07-20T05:37:12.048Z,8.35
2018-07-20T05:38:15.853Z,7.62
2018-07-20T05:39:19.426Z,8.10
2018-07-20T05:40:23.034Z,8.10
2018-07-20T05:41:26.310Z,8.88
2018-07-20T05:42:29.973Z,8.00
2018-07-20T05:43:33.623Z,8.05
2018-07-20T05:44:37.199Z,8.83
2018-07-20T05:45:40.451Z,8.90
2018-07-20T05:46:44.029Z,8.80
2018-07-20T05:47:47.620Z,9.05
2018-07-20T05:48:51.296Z,8.75
2018-07-20T05:49:54.931Z,8.70
2018-07-20T05:50:58.565Z,8.93
2018-07-20T05:52:02.174Z,8.50
2018-07-20T05:53:06.032Z,8.65
2018-07-20T05:54:09.767Z,8.20
2018-07-20T05:55:13.393Z,8.80
2018-07-20T05:56:17.040Z,8.38
2018-07-20T05:57:20.666Z,8.20
2018-07-20T05:58:24.276Z,9.18
2018-07-20T05:59:27.603Z,8.38
2018-07-20T06:00:31.201Z,8.90
2018-07-20T06:01:34.832Z,8.95
2018-07-20T06:02:38.482Z,8.70
2018-07-20T06:03:42.055Z,7.75
2018-07-20T06:04:45.843Z,7.85
2018-07-20T06:05:49.527Z,8.55
2018-07-20T06:06:52.799Z,9.10
2018-07-20T06:07:56.460Z,8.85
2018-07-20T06:09:00.075Z,9.30
2018-07-20T06:10:03.708Z,9.73
2018-07-20T06:11:07.489Z,9.50
2018-07-20T06:12:11.209Z,7.87
2018-07-20T06:13:14.853Z,9.13
2018-07-20T06:14:18.455Z,9.15
2018-07-20T06:15:21.738Z,8.00
2018-07-20T06:16:24.999Z,8.00
2018-07-20T06:17:28.647Z,8.23
2018-07-20T06:18:32.257Z,9.43
2018-07-20T06:19:35.849Z,8.60
2018-07-20T06:20:39.454Z,8.93
2018-07-20T06:21:43.069Z,9.08
2018-07-20T06:22:46.705Z,8.65
2018-07-20T06:23:50.338Z,8.55
2018-07-20T06:24:53.916Z,8.68
2018-07-20T06:25:57.526Z,9.03
2018-07-20T06:27:01.151Z,8.10
2018-07-20T06:28:04.747Z,7.75
2018-07-20T06:29:08.325Z,8.83
2018-07-20T06:30:11.587Z,8.30
2018-07-20T06:31:15.211Z,8.23
2018-07-20T06:32:18.849Z,8.10
2018-07-20T06:33:22.456Z,7.85
2018-07-20T06:34:26.177Z,8.13
2018-07-20T06:35:29.822Z,8.43
2018-07-20T06:36:33.491Z,7.65
2018-07-20T06:37:37.070Z,7.87
2018-07-20T06:38:40.670Z,8.20
2018-07-20T06:39:44.317Z,7.47
2018-07-20T06:40:47.618Z,8.85
2018-07-20T06:41:51.283Z,8.40
2018-07-20T06:42:54.992Z,8.45
2018-07-20T06:43:58.587Z,9.23
2018-07-20T06:45:01.966Z,8.05
2018-07-20T06:46:05.297Z,7.78
2018-07-20T06:47:08.897Z,8.20
2018-07-20T06:48:12.499Z,8.93
2018-07-20T06:49:16.123Z,7.55
2018-07-20T06:50:19.730Z,7.87
2018-07-20T06:51:23.016Z,7.55
2018-07-20T06:52:26.744Z,7.80
2018-07-20T06:53:30.401Z,7.80
2018-07-20T06:54:34.034Z,8.60
2018-07-20T06:55:37.717Z,8.43
2018-07-20T06:56:41.347Z,7.83
2018-07-20T06:57:44.993Z,7.20
2018-07-20T06:58:48.626Z,8.40
2018-07-20T06:59:51.913Z,8.08
2018-07-20T07:00:55.504Z,7.83
2018-07-20T07:01:59.154Z,8.23
2018-07-20T07:03:02.937Z,8.70
2018-07-20T07:04:06.541Z,8.78
2018-07-20T07:05:10.970Z,8.15
2018-07-20T07:06:14.596Z,7.87
2018-07-20T07:07:17.895Z,8.78
2018-07-20T07:08:21.633Z,7.95
2018-07-20T07:09:25.353Z,8.50
2018-07-20T07:10:28.954Z,8.00
2018-07-20T07:11:32.639Z,7.97
2018-07-20T07:12:36.273Z,7.00
2018-07-20T07:13:39.918Z,7.08
2018-07-20T07:14:43.516Z,6.80
2018-07-20T07:15:47.112Z,7.90
2018-07-20T07:16:50.378Z,7.75
2018-07-20T07:17:53.963Z,7.95
2018-07-20T07:18:57.613Z,8.23
2018-07-20T07:20:01.246Z,8.28
2018-07-20T07:21:04.898Z,8.37
2018-07-20T07:22:08.532Z,8.00
2018-07-20T07:23:12.185Z,7.20
2018-07-20T07:24:15.791Z,7.90
2018-07-20T07:25:19.365Z,6.97
2018-07-20T07:26:22.958Z,8.17
2018-07-20T07:27:26.769Z,7.53
2018-07-20T07:28:30.393Z,7.10
2018-07-20T07:29:34.016Z,7.72
2018-07-20T07:30:37.680Z,7.35
2018-07-20T07:31:41.496Z,6.75
2018-07-20T07:32:45.141Z,7.60
2018-07-20T07:33:48.799Z,7.67
2018-07-20T07:34:52.431Z,6.80
2018-07-20T07:35:56.166Z,7.20
2018-07-20T07:36:59.687Z,7.07
2018-07-20T07:38:03.364Z,7.30
2018-07-20T07:39:09.516Z,7.20
2018-07-20T07:40:13.158Z,7.60
2018-07-20T07:41:16.766Z,7.07
2018-07-20T07:42:20.391Z,6.87
2018-07-20T07:43:24.000Z,6.97
2018-07-20T07:44:27.623Z,7.17
2018-07-20T07:45:31.282Z,6.90
2018-07-20T07:46:34.932Z,6.97
2018-07-20T07:47:38.244Z,7.57
2018-07-20T07:48:42.010Z,7.40
2018-07-20T07:49:45.635Z,7.77
2018-07-20T07:50:49.253Z,7.20
2018-07-20T07:51:52.860Z,6.80
2018-07-20T07:52:56.532Z,7.00
2018-07-20T07:54:00.153Z,6.93
2018-07-20T07:55:03.866Z,7.13
2018-07-20T07:56:07.232Z,6.47
2018-07-20T07:57:11.029Z,6.37
2018-07-20T07:58:14.625Z,7.33
2018-07-20T07:59:18.259Z,6.70
2018-07-20T08:00:21.861Z,7.33
2018-07-20T08:01:25.496Z,6.43
2018-07-20T08:02:29.129Z,6.50
2018-07-20T08:03:32.816Z,7.67
2018-07-20T08:04:36.382Z,6.43
2018-07-20T08:05:40.025Z,6.53
2018-07-20T08:06:43.739Z,6.70
2018-07-20T08:07:47.439Z,7.33
2018-07-20T08:08:51.051Z,7.20
2018-07-20T08:09:54.784Z,6.60
2018-07-20T08:10:58.273Z,6.60
2018-07-20T08:12:01.892Z,7.03
2018-07-20T08:13:05.705Z,6.60
2018-07-20T08:14:10.363Z,6.57
2018-07-20T08:15:13.961Z,5.70
2018-07-20T08:16:17.642Z,7.13
2018-07-20T08:17:21.283Z,6.47
2018-07-20T08:18:31.438Z,5.77
2018-07-20T08:19:35.057Z,6.77
2018-07-20T08:20:38.715Z,5.90
2018-07-20T08:21:42.301Z,6.20
2018-07-20T08:22:46.006Z,6.20
2018-07-20T08:23:49.618Z,6.00
2018-07-20T08:24:53.338Z,6.23
2018-07-20T08:25:56.947Z,6.27
2018-07-20T08:27:00.635Z,7.03
2018-07-20T08:28:04.418Z,6.87
2018-07-20T08:29:08.040Z,7.00
2018-07-20T08:30:11.656Z,6.23
2018-07-20T08:31:15.348Z,5.97
2018-07-20T08:32:18.980Z,6.07
2018-07-20T08:33:22.577Z,6.20
2018-07-20T08:34:26.193Z,5.60
2018-07-20T08:35:29.811Z,6.10
2018-07-20T08:36:33.519Z,6.77
2018-07-20T08:37:37.106Z,6.77
2018-07-20T08:38:40.771Z,6.40
2018-07-20T08:39:44.478Z,6.20
2018-07-20T08:40:48.119Z,6.40
2018-07-20T08:41:51.402Z,5.47
2018-07-20T08:42:55.098Z,6.63
2018-07-20T08:43:58.371Z,6.80
2018-07-20T08:45:02.031Z,6.50
2018-07-20T08:46:05.684Z,6.57
2018-07-20T08:47:09.419Z,6.60
2018-07-20T08:48:13.079Z,6.73
2018-07-20T08:49:16.740Z,6.60
2018-07-20T08:50:20.434Z,6.57
2018-07-20T08:51:23.692Z,6.37
2018-07-20T08:52:27.321Z,6.97
2018-07-20T08:53:30.980Z,6.30
2018-07-20T08:54:34.616Z,6.03
2018-07-20T08:55:38.241Z,6.13
2018-07-20T08:56:41.881Z,6.30
2018-07-20T08:57:45.437Z,5.77
2018-07-20T08:58:49.034Z,6.07
2018-07-20T08:59:52.629Z,5.23
2018-07-20T09:00:55.939Z,6.10
2018-07-20T09:01:59.706Z,6.30
2018-07-20T09:03:03.407Z,5.60
2018-07-20T09:04:06.982Z,5.10
2018-07-20T09:05:10.613Z,5.33
2018-07-20T09:06:13.950Z,5.50
2018-07-20T09:07:17.560Z,5.10
2018-07-20T09:08:21.157Z,5.23
2018-07-20T09:09:24.811Z,5.80
2018-07-20T09:10:28.448Z,5.60
2018-07-20T09:11:32.101Z,5.00
2018-07-20T09:12:35.731Z,4.80
2018-07-20T09:13:39.406Z,4.67
2018-07-20T09:14:42.960Z,4.27
2018-07-20T09:15:46.653Z,4.07
2018-07-20T09:16:50.292Z,4.60
2018-07-20T09:17:53.888Z,4.10
2018-07-20T09:18:57.513Z,4.70
2018-07-20T09:20:01.123Z,4.50
2018-07-20T09:21:04.918Z,4.53
2018-07-20T09:22:08.225Z,4.10
2018-07-20T09:23:11.824Z,4.73
2018-07-20T09:24:15.532Z,3.80
2018-07-20T09:25:18.770Z,4.00
2018-07-20T09:26:22.408Z,4.00
2018-07-20T09:27:25.657Z,4.27
2018-07-20T09:28:29.280Z,4.17
2018-07-20T09:29:32.938Z,4.40
2018-07-20T09:30:36.512Z,4.00
2018-07-20T09:31:40.082Z,4.20
2018-07-20T09:32:43.677Z,3.97
2018-07-20T09:33:47.274Z,4.37
2018-07-20T09:34:51.181Z,4.20
2018-07-20T09:35:54.860Z,4.03
2018-07-20T09:36:58.481Z,3.77
2018-07-20T09:38:02.031Z,3.90
2018-07-20T09:39:08.083Z,3.40
2018-07-20T09:40:11.382Z,3.57
2018-07-20T09:41:15.005Z,3.90
2018-07-20T09:42:18.577Z,3.57
2018-07-20T09:43:22.264Z,3.57
2018-07-20T09:44:25.927Z,3.43
2018-07-20T09:45:29.497Z,3.53
2018-07-20T09:46:33.095Z,3.43
2018-07-20T09:47:36.710Z,3.47
2018-07-20T09:48:40.469Z,3.53
2018-07-20T09:49:44.127Z,3.63
2018-07-20T09:50:47.746Z,3.60
2018-07-20T09:51:51.342Z,3.77
2018-07-20T09:52:54.970Z,3.40
2018-07-20T09:53:58.637Z,3.90
2018-07-20T09:55:01.952Z,3.80
2018-07-20T09:56:05.933Z,3.23
2018-07-20T09:57:09.542Z,3.67
2018-07-20T09:58:13.161Z,3.10
2018-07-20T09:59:16.821Z,3.17
2018-07-20T10:00:25.941Z,3.47
2018-07-20T10:01:29.613Z,3.30
2018-07-20T10:02:32.882Z,3.70
2018-07-20T10:03:36.686Z,3.53
2018-07-20T10:04:40.370Z,4.33
2018-07-20T10:05:44.280Z,3.60
2018-07-20T10:06:47.657Z,4.20
2018-07-20T10:07:51.336Z,4.00
2018-07-20T10:08:55.100Z,4.23
2018-07-20T10:09:58.738Z,5.13
2018-07-20T10:11:02.410Z,5.23
2018-07-20T10:12:06.144Z,5.80
2018-07-20T10:13:09.750Z,5.50
2018-07-20T10:14:13.440Z,5.73
2018-07-20T10:15:16.689Z,5.47
2018-07-20T10:16:20.317Z,5.37
2018-07-20T10:17:23.951Z,6.13
2018-07-20T10:18:27.611Z,6.10
2018-07-20T10:19:31.268Z,4.87
2018-07-20T10:20:35.047Z,5.30
2018-07-20T10:21:38.640Z,5.20
2018-07-20T10:22:42.262Z,4.90
2018-07-20T10:23:45.521Z,4.83
2018-07-20T10:24:49.177Z,5.27
2018-07-20T10:25:52.819Z,4.40
2018-07-20T10:26:56.458Z,5.43
2018-07-20T10:28:00.125Z,5.10
2018-07-20T10:29:03.765Z,5.63
2018-07-20T10:30:07.511Z,4.70
2018-07-20T10:31:11.102Z,5.10
2018-07-20T10:32:14.827Z,5.60
2018-07-20T10:33:18.451Z,5.60
2018-07-20T10:34:22.083Z,6.00
2018-07-20T10:35:25.731Z,6.40
2018-07-20T10:36:29.480Z,4.93
2018-07-20T10:37:33.177Z,5.63
2018-07-20T10:38:37.369Z,5.40
2018-07-20T10:39:47.692Z,6.40
2018-07-20T10:40:51.401Z,5.47
2018-07-20T10:41:55.043Z,5.30
2018-07-20T10:42:59.200Z,5.50
2018-07-20T10:44:02.847Z,5.07
2018-07-20T10:45:06.693Z,5.20
2018-07-20T10:46:10.413Z,5.10
2018-07-20T10:47:14.218Z,5.17
2018-07-20T10:48:17.857Z,6.03
2018-07-20T10:49:21.158Z,4.60
2018-07-20T10:50:24.751Z,5.83
2018-07-20T10:51:28.348Z,4.60
2018-07-20T10:52:32.043Z,5.83
2018-07-20T10:53:35.729Z,5.23
2018-07-20T10:54:39.384Z,5.13
2018-07-20T10:55:42.689Z,4.80
2018-07-20T10:56:46.314Z,4.50
2018-07-20T10:57:49.990Z,4.90
2018-07-20T10:58:54.237Z,6.00
2018-07-20T10:59:57.887Z,5.33
2018-07-20T11:01:01.496Z,5.73
2018-07-20T11:02:05.135Z,5.47
2018-07-20T11:03:08.432Z,5.30
2018-07-20T11:04:12.077Z,4.87
2018-07-20T11:05:15.775Z,6.10
2018-07-20T11:06:19.368Z,5.40
2018-07-20T11:07:23.012Z,5.33
2018-07-20T11:08:26.244Z,5.67
2018-07-20T11:09:29.880Z,4.63
2018-07-20T11:10:33.520Z,5.10
2018-07-20T11:11:37.137Z,5.13
2018-07-20T11:12:40.768Z,6.00
2018-07-20T11:13:44.437Z,5.70
2018-07-20T11:14:47.963Z,4.80
2018-07-20T11:15:51.590Z,5.17
2018-07-20T11:16:55.184Z,5.67
2018-07-20T11:17:58.831Z,5.17
2018-07-20T11:19:02.440Z,5.00
2018-07-20T11:20:06.072Z,5.43
2018-07-20T11:21:09.741Z,4.80
2018-07-20T11:22:13.337Z,5.80
2018-07-20T11:23:16.979Z,5.30
2018-07-20T11:24:20.601Z,5.07
2018-07-20T11:25:24.187Z,5.50
2018-07-20T11:26:27.766Z,4.73
2018-07-20T11:27:31.361Z,4.50
2018-07-20T11:28:35.078Z,5.17
2018-07-20T11:29:38.777Z,5.07
2018-07-20T11:30:42.422Z,4.30
2018-07-20T11:31:46.062Z,4.27
2018-07-20T11:32:49.691Z,5.10
2018-07-20T11:33:53.016Z,5.00
2018-07-20T11:34:56.652Z,4.50
2018-07-20T11:36:00.014Z,4.73
2018-07-20T11:37:03.678Z,4.80
2018-07-20T11:38:07.305Z,4.50
2018-07-20T11:39:11.040Z,5.10
2018-07-20T11:40:14.710Z,4.97
2018-07-20T11:41:18.289Z,4.67
2018-07-20T11:42:21.882Z,4.37
2018-07-20T11:43:25.483Z,4.53
2018-07-20T11:44:29.072Z,4.60
2018-07-20T11:45:32.424Z,4.77
2018-07-20T11:46:36.061Z,4.47
2018-07-20T11:47:39.739Z,4.73
2018-07-20T11:48:43.364Z,4.37
2018-07-20T11:49:46.987Z,4.53
2018-07-20T11:50:50.621Z,5.17
2018-07-20T11:51:54.210Z,5.10
2018-07-20T11:52:57.835Z,4.77
2018-07-20T11:54:01.519Z,4.60
2018-07-20T11:55:05.221Z,5.17
2018-07-20T11:56:08.888Z,4.73
2018-07-20T11:57:12.521Z,5.33
2018-07-20T11:58:16.127Z,4.60
2018-07-20T11:59:19.797Z,4.97
2018-07-20T12:00:23.451Z,5.00
2018-07-20T12:01:27.160Z,5.10
2018-07-20T12:02:30.470Z,4.83
2018-07-20T12:03:34.097Z,5.83
2018-07-20T12:04:37.742Z,5.20
2018-07-20T12:05:41.342Z,5.00
2018-07-20T12:06:45.030Z,5.00
2018-07-20T12:07:48.705Z,4.80
2018-07-20T12:08:51.935Z,4.80
2018-07-20T12:09:55.576Z,4.80
2018-07-20T12:10:58.838Z,4.30
2018-07-20T12:12:02.466Z,4.30
2018-07-20T12:13:06.157Z,4.90
2018-07-20T12:14:09.758Z,4.60
2018-07-20T12:15:13.394Z,4.13
2018-07-20T12:16:17.014Z,4.30
2018-07-20T12:17:20.697Z,4.63
2018-07-20T12:18:24.365Z,4.77
2018-07-20T12:19:27.980Z,4.30
2018-07-20T12:20:31.625Z,4.97
2018-07-20T12:21:35.264Z,4.37
2018-07-20T12:22:38.872Z,5.40
2018-07-20T12:23:42.552Z,5.07
2018-07-20T12:24:48.952Z,4.90
2018-07-20T12:25:52.705Z,4.53
2018-07-20T12:26:55.955Z,4.70
2018-07-20T12:27:59.575Z,4.33
2018-07-20T12:29:03.198Z,5.43
2018-07-20T12:30:06.945Z,4.90
2018-07-20T12:31:10.676Z,4.37
2018-07-20T12:32:14.276Z,4.23
2018-07-20T12:33:17.948Z,5.00
2018-07-20T12:34:21.228Z,4.83
2018-07-20T12:35:24.839Z,4.67
2018-07-20T12:36:28.532Z,4.80
2018-07-20T12:37:32.197Z,4.23
2018-07-20T12:38:35.808Z,4.83
2018-07-20T12:39:39.031Z,4.77
2018-07-20T12:40:42.582Z,4.27
2018-07-20T12:41:46.266Z,4.33
2018-07-20T12:42:49.533Z,4.60
2018-07-20T12:43:53.162Z,4.53
2018-07-20T12:44:56.852Z,4.57
2018-07-20T12:46:00.491Z,4.73
2018-07-20T12:47:04.213Z,4.67
2018-07-20T12:48:07.789Z,4.63
2018-07-20T12:49:11.402Z,5.00
2018-07-20T12:50:15.093Z,4.27
2018-07-20T12:51:18.684Z,3.73
2018-07-20T12:52:22.021Z,4.30
2018-07-20T12:53:25.697Z,4.47
2018-07-20T12:54:29.266Z,4.50
2018-07-20T12:55:32.906Z,4.00
2018-07-20T12:56:36.504Z,4.60
2018-07-20T12:57:40.184Z,4.20
2018-07-20T12:58:44.800Z,4.20
2018-07-20T12:59:48.463Z,4.70
2018-07-20T13:00:52.094Z,4.57
2018-07-20T13:01:55.714Z,4.50
2018-07-20T13:02:59.079Z,4.40
2018-07-20T13:04:02.649Z,4.87
2018-07-20T13:05:06.558Z,3.73
2018-07-20T13:06:10.254Z,5.10
2018-07-20T13:07:13.953Z,4.17
2018-07-20T13:08:17.608Z,4.43
2018-07-20T13:09:21.208Z,4.67
2018-07-20T13:10:24.900Z,4.47
2018-07-20T13:11:28.608Z,4.17
2018-07-20T13:12:32.299Z,4.40
2018-07-20T13:13:35.911Z,4.20
2018-07-20T13:14:39.607Z,4.50
2018-07-20T13:15:43.211Z,3.97
2018-07-20T13:16:46.899Z,4.10
2018-07-20T13:17:50.539Z,4.00
2018-07-20T13:18:54.191Z,4.00
2018-07-20T13:19:57.793Z,3.80
2018-07-20T13:21:01.353Z,4.20
2018-07-20T13:22:04.999Z,4.17
2018-07-20T13:23:08.719Z,3.90
2018-07-20T13:24:12.339Z,4.10
2018-07-20T13:25:15.976Z,3.77
2018-07-20T13:26:19.604Z,4.00
2018-07-20T13:27:23.317Z,4.30
2018-07-20T13:28:26.888Z,3.70
2018-07-20T13:29:30.464Z,3.87
2018-07-20T13:30:34.121Z,3.93
2018-07-20T13:31:37.812Z,3.90
2018-07-20T13:32:41.470Z,4.00
2018-07-20T13:33:45.071Z,3.50
2018-07-20T13:34:48.884Z,3.70
2018-07-20T13:35:52.145Z,3.23
2018-07-20T13:36:55.747Z,4.63
2018-07-20T13:37:59.585Z,4.20
2018-07-20T13:39:03.293Z,4.10
2018-07-20T13:40:07.707Z,4.00
2018-07-20T13:41:11.369Z,3.90
2018-07-20T13:42:15.009Z,4.07
2018-07-20T13:43:18.657Z,3.20
2018-07-20T13:44:22.338Z,3.87
2018-07-20T13:45:25.622Z,4.20
2018-07-20T13:46:29.316Z,4.00
2018-07-20T13:47:32.980Z,4.10
2018-07-20T13:48:36.647Z,3.40
2018-07-20T13:49:40.263Z,3.83
2018-07-20T13:50:43.896Z,4.13
2018-07-20T13:51:47.534Z,3.60
2018-07-20T13:52:51.184Z,3.93
2018-07-20T13:53:54.754Z,4.33
2018-07-20T13:54:58.356Z,4.00
2018-07-20T13:56:02.048Z,3.63
2018-07-20T13:57:05.699Z,3.60
2018-07-20T13:58:09.363Z,4.03
2018-07-20T13:59:13.016Z,3.70
2018-07-20T14:00:16.636Z,3.87
2018-07-20T14:01:20.223Z,3.83
2018-07-20T14:02:23.897Z,4.17
2018-07-20T14:03:27.592Z,3.50
2018-07-20T14:04:31.209Z,4.00
2018-07-20T14:05:34.877Z,3.80
2018-07-20T14:06:38.541Z,3.70